createdAt,value
2022-08-05T00:00:30.429Z,15.00
2022-08-05T00:02:32.257Z,16.17
2022-08-05T00:04:34.103Z,16.15
2022-08-05T00:06:36.343Z,15.98
2022-08-05T00:08:38.939Z,16.55
2022-08-05T00:10:41.986Z,17.85
2022-08-05T00:12:56.170Z,16.83
2022-08-05T00:14:58.602Z,17.02
2022-08-05T00:17:01.706Z,20.25
2022-08-05T00:19:04.731Z,20.63
2022-08-05T00:21:08.509Z,18.27
2022-08-05T00:23:12.800Z,17.33
2022-08-05T00:25:15.278Z,18.48
2022-08-05T00:27:18.153Z,18.13
2022-08-05T00:29:22.702Z,16.77
2022-08-05T00:31:54.456Z,16.60
2022-08-05T00:34:56.561Z,17.60
2022-08-05T00:36:16.473Z,15.85
2022-08-05T00:38:33.913Z,17.10
2022-08-05T00:40:53.135Z,18.43
2022-08-05T00:42:57.305Z,14.90
2022-08-05T00:44:59.395Z,14.63
2022-08-05T00:47:01.837Z,19.40
2022-08-05T00:49:06.082Z,16.70
2022-08-05T00:54:00.032Z,13.35
2022-08-05T00:55:53.432Z,19.48
2022-08-05T00:57:58.254Z,15.75
2022-08-05T01:00:00.950Z,17.17
2022-08-05T01:02:02.677Z,16.20
2022-08-05T01:04:13.636Z,24.33
2022-08-05T01:06:16.161Z,19.52
2022-08-05T01:08:41.774Z,15.63
2022-08-05T01:10:52.947Z,15.95
2022-08-05T01:13:03.277Z,17.85
2022-08-05T01:15:35.914Z,15.85
2022-08-05T01:17:43.990Z,19.38
2022-08-05T01:20:00.784Z,16.60
2022-08-05T01:22:38.195Z,16.25
2022-08-05T01:24:50.781Z,19.00
2022-08-05T01:27:17.622Z,16.25
2022-08-05T01:29:38.243Z,20.27
2022-08-05T01:31:59.447Z,17.58
2022-08-05T01:34:07.020Z,18.85
2022-08-05T01:36:16.298Z,18.40
2022-08-05T01:38:27.167Z,18.77
2022-08-05T01:40:31.538Z,19.75
2022-08-05T01:42:34.717Z,19.02
2022-08-05T01:44:38.053Z,21.00
2022-08-05T01:46:46.361Z,19.02
2022-08-05T01:48:49.977Z,17.67
2022-08-05T01:50:53.236Z,16.27
2022-08-05T01:52:59.342Z,17.05
2022-08-05T01:55:05.648Z,19.45
2022-08-05T01:58:10.549Z,14.77
2022-08-05T02:01:39.993Z,16.80
2022-08-05T02:03:46.749Z,15.18
2022-08-05T02:05:50.044Z,22.05
2022-08-05T02:08:00.305Z,16.33
2022-08-05T02:10:05.219Z,17.20
2022-08-05T02:12:21.549Z,17.45
2022-08-05T02:14:58.668Z,15.18
2022-08-05T02:18:28.825Z,19.45
2022-08-05T02:19:51.177Z,16.25
2022-08-05T02:22:05.527Z,16.65
2022-08-05T02:24:14.191Z,15.48
2022-08-05T02:26:26.515Z,17.00
2022-08-05T02:28:35.233Z,14.82
2022-08-05T02:30:51.898Z,17.10
2022-08-05T02:32:59.487Z,17.50
2022-08-05T02:35:14.182Z,16.33
2022-08-05T02:37:17.430Z,15.77
2022-08-05T02:39:21.708Z,17.83
2022-08-05T02:41:28.322Z,18.20
2022-08-05T02:43:32.998Z,17.73
2022-08-05T02:45:52.346Z,15.80
2022-08-05T02:48:06.999Z,15.93
2022-08-05T02:50:15.133Z,18.15
2022-08-05T02:52:29.978Z,14.73
2022-08-05T02:54:36.976Z,15.15
2022-08-05T02:56:41.848Z,14.13
2022-08-05T02:58:52.720Z,14.18
2022-08-05T03:00:56.725Z,15.98
2022-08-05T03:03:00.525Z,15.52
2022-08-05T03:07:06.635Z,13.18
2022-08-05T03:09:36.344Z,18.55
2022-08-05T03:11:54.456Z,18.23
2022-08-05T03:14:03.195Z,16.38
2022-08-05T03:16:05.570Z,14.63
2022-08-05T03:18:11.406Z,12.80
2022-08-05T03:20:13.837Z,14.23
2022-08-05T03:22:19.087Z,19.30
2022-08-05T03:24:35.025Z,14.63
2022-08-05T03:26:37.988Z,13.13
2022-08-05T03:28:39.840Z,13.55
2022-08-05T03:30:43.268Z,13.25
2022-08-05T03:32:45.052Z,20.75
2022-08-05T03:34:51.258Z,14.73
2022-08-05T03:36:53.562Z,14.27
2022-08-05T03:38:55.932Z,13.98
2022-08-05T03:40:58.103Z,17.38
2022-08-05T03:43:01.504Z,19.45
2022-08-05T03:45:23.575Z,13.85
2022-08-05T03:47:26.179Z,15.70
2022-08-05T03:49:51.393Z,16.63
2022-08-05T03:52:48.289Z,13.60
2022-08-05T03:55:50.220Z,16.67
2022-08-05T03:59:08.653Z,14.02
2022-08-05T04:01:13.011Z,13.98
2022-08-05T04:03:28.572Z,11.65
2022-08-05T04:05:34.711Z,17.80
2022-08-05T04:07:57.144Z,15.27
2022-08-05T04:10:01.682Z,13.63
2022-08-05T04:12:05.356Z,13.60
2022-08-05T04:14:29.414Z,12.82
2022-08-05T04:16:33.726Z,11.95
2022-08-05T04:18:36.334Z,15.27
2022-08-05T04:20:38.206Z,12.82
2022-08-05T04:22:43.647Z,11.70
2022-08-05T04:24:52.734Z,12.73
2022-08-05T04:26:54.894Z,14.00
2022-08-05T04:29:01.030Z,10.27
2022-08-05T04:31:10.524Z,24.58
2022-08-05T04:33:14.011Z,13.27
2022-08-05T04:35:19.597Z,16.20
2022-08-05T04:37:22.934Z,13.00
2022-08-05T04:39:43.459Z,21.67
2022-08-05T04:41:46.137Z,12.73
2022-08-05T04:43:52.903Z,10.88
2022-08-05T04:45:55.764Z,13.13
2022-08-05T04:48:16.534Z,14.00
2022-08-05T04:50:28.946Z,10.23
2022-08-05T04:52:39.317Z,11.88
2022-08-05T04:54:41.099Z,12.93
2022-08-05T04:56:43.562Z,13.68
2022-08-05T04:58:45.704Z,12.93
2022-08-05T05:00:50.746Z,11.43
2022-08-05T05:02:52.785Z,14.38
2022-08-05T05:05:01.713Z,18.42
2022-08-05T05:07:04.384Z,11.90
2022-08-05T05:09:14.116Z,11.93
2022-08-05T05:11:19.275Z,12.13
2022-08-05T05:15:57.488Z,9.98
2022-08-05T05:17:57.008Z,8.23
2022-08-05T05:19:59.655Z,12.18
2022-08-05T05:22:03.677Z,11.80
2022-08-05T05:24:23.534Z,12.65
2022-08-05T05:26:46.429Z,11.52
2022-08-05T05:28:49.816Z,11.48
2022-08-05T05:30:51.759Z,9.55
2022-08-05T05:32:53.798Z,10.80
2022-08-05T05:34:55.705Z,11.98
2022-08-05T05:36:59.499Z,13.38
2022-08-05T05:39:03.733Z,10.77
2022-08-05T05:41:07.624Z,12.82
2022-08-05T05:43:09.609Z,11.85
2022-08-05T05:45:11.910Z,18.85
2022-08-05T05:47:22.125Z,9.88
2022-08-05T05:49:24.260Z,14.20
2022-08-05T05:51:27.905Z,11.88
2022-08-05T05:53:29.879Z,9.82
2022-08-05T05:56:01.377Z,10.20
2022-08-05T05:58:05.147Z,10.85
2022-08-05T06:00:13.198Z,10.35
2022-08-05T06:02:15.088Z,11.25
2022-08-05T06:04:18.740Z,9.27
2022-08-05T06:06:23.910Z,8.48
2022-08-05T06:08:32.778Z,8.05
2022-08-05T06:10:36.582Z,8.70
2022-08-05T06:12:42.223Z,9.90
2022-08-05T06:14:44.191Z,13.85
2022-08-05T06:16:46.496Z,12.30
2022-08-05T06:18:48.335Z,8.10
2022-08-05T06:20:55.437Z,12.00
2022-08-05T06:22:58.765Z,10.07
2022-08-05T06:27:04.029Z,7.50
2022-08-05T06:29:42.948Z,9.88
2022-08-05T06:31:30.599Z,9.27
2022-08-05T06:34:06.044Z,9.80
2022-08-05T06:36:05.656Z,9.85
2022-08-05T06:38:11.973Z,8.50
2022-08-05T06:40:18.130Z,8.60
2022-08-05T06:42:23.062Z,7.38
2022-08-05T06:44:27.316Z,10.82
2022-08-05T06:46:30.156Z,8.23
2022-08-05T06:48:53.466Z,7.80
2022-08-05T06:50:54.129Z,6.85
2022-08-05T06:52:58.656Z,10.07
2022-08-05T06:55:06.960Z,8.93
2022-08-05T06:58:03.044Z,8.15
2022-08-05T06:59:30.602Z,9.13
2022-08-05T07:01:42.499Z,9.43
2022-08-05T07:03:44.396Z,7.88
2022-08-05T07:05:46.587Z,10.35
2022-08-05T07:07:48.541Z,7.25
2022-08-05T07:09:55.664Z,7.93
2022-08-05T07:12:00.799Z,6.88
2022-08-05T07:14:02.687Z,8.50
2022-08-05T07:16:06.338Z,8.52
2022-08-05T07:18:20.273Z,8.75
2022-08-05T07:20:33.476Z,7.10
2022-08-05T07:22:36.024Z,8.40
2022-08-05T07:24:43.993Z,10.15
2022-08-05T07:26:54.544Z,8.57
2022-08-05T07:28:56.488Z,6.78
2022-08-05T07:31:01.742Z,8.13
2022-08-05T07:33:10.014Z,9.52
2022-08-05T07:36:03.456Z,8.40
2022-08-05T07:37:36.198Z,6.45
2022-08-05T07:40:04.601Z,7.13
2022-08-05T07:42:08.619Z,5.80
2022-08-05T07:44:19.184Z,6.88
2022-08-05T07:46:24.674Z,9.32
2022-08-05T07:48:36.584Z,5.88
2022-08-05T07:50:49.586Z,6.47
2022-08-05T07:52:51.760Z,8.90
2022-08-05T07:54:55.205Z,6.97
2022-08-05T07:57:14.569Z,8.93
2022-08-05T07:59:23.144Z,8.50
2022-08-05T08:01:33.293Z,7.10
2022-08-05T08:03:44.590Z,5.85
2022-08-05T08:05:49.732Z,7.00
2022-08-05T08:08:00.115Z,4.60
2022-08-05T08:10:02.610Z,6.50
2022-08-05T08:12:13.618Z,6.35
2022-08-05T08:14:22.374Z,7.95
2022-08-05T08:16:35.618Z,6.65
2022-08-05T08:18:49.944Z,5.78
2022-08-05T08:21:02.548Z,4.55
2022-08-05T08:23:05.674Z,5.63
2022-08-05T08:25:16.222Z,5.35
2022-08-05T08:27:19.655Z,5.28
2022-08-05T08:30:04.118Z,6.45
2022-08-05T08:31:43.555Z,6.50
2022-08-05T08:33:45.940Z,4.38
2022-08-05T08:36:07.823Z,4.47
2022-08-05T08:38:16.317Z,9.05
2022-08-05T08:40:18.509Z,4.50
2022-08-05T08:42:34.608Z,5.28
2022-08-05T08:45:18.598Z,3.75
2022-08-05T08:47:47.179Z,4.25
2022-08-05T08:50:23.236Z,6.90
2022-08-05T08:52:05.655Z,3.00
2022-08-05T08:54:08.287Z,3.78
2022-08-05T08:56:10.652Z,4.95
2022-08-05T08:58:15.856Z,5.90
2022-08-05T09:00:19.426Z,6.05
2022-08-05T09:02:24.226Z,7.93
2022-08-05T09:04:30.183Z,4.97
2022-08-05T09:06:32.699Z,5.03
2022-08-05T09:08:40.138Z,6.53
2022-08-05T09:10:42.664Z,10.63
2022-08-05T09:12:51.099Z,6.32
2022-08-05T09:15:03.984Z,4.78
2022-08-05T09:17:40.967Z,4.72
2022-08-05T09:19:36.822Z,6.55
2022-08-05T09:22:23.427Z,4.40
2022-08-05T09:24:16.973Z,3.95
2022-08-05T09:26:20.820Z,9.23
2022-08-05T09:28:31.922Z,4.68
2022-08-05T09:30:35.078Z,5.53
2022-08-05T09:32:46.024Z,5.63
2022-08-05T09:34:53.450Z,9.38
2022-08-05T09:36:59.434Z,8.38
2022-08-05T09:39:18.261Z,3.47
2022-08-05T09:41:24.453Z,5.72
2022-08-05T09:43:40.750Z,4.18
2022-08-05T09:46:07.083Z,4.85
2022-08-05T09:48:32.331Z,6.63
2022-08-05T09:50:44.777Z,8.77
2022-08-05T09:52:47.125Z,5.45
2022-08-05T09:54:55.759Z,9.93
2022-08-05T09:57:01.795Z,7.78
2022-08-05T09:59:17.286Z,6.45
2022-08-05T10:01:31.990Z,5.78
2022-08-05T10:03:56.742Z,4.15
2022-08-05T10:06:15.844Z,8.20
2022-08-05T10:08:37.282Z,6.22
2022-08-05T10:10:48.223Z,6.15
2022-08-05T10:12:55.423Z,6.55
2022-08-05T10:15:21.920Z,6.97
2022-08-05T10:17:37.324Z,3.25
2022-08-05T10:20:02.954Z,9.20
2022-08-05T10:22:04.387Z,7.53
2022-08-05T10:24:09.209Z,6.20
2022-08-05T10:26:14.165Z,8.98
2022-08-05T10:28:29.005Z,11.38
2022-08-05T10:31:20.751Z,5.28
2022-08-05T10:33:02.203Z,5.65
2022-08-05T10:35:05.002Z,5.30
2022-08-05T10:37:07.262Z,11.97
2022-08-05T10:39:25.078Z,9.27
2022-08-05T10:41:47.386Z,5.78
2022-08-05T10:43:57.471Z,5.35
2022-08-05T10:46:07.124Z,7.47
2022-08-05T10:48:57.396Z,4.10
2022-08-05T10:51:21.845Z,9.65
2022-08-05T10:53:45.101Z,5.68
2022-08-05T10:56:25.369Z,4.57
2022-08-05T10:58:47.818Z,5.88
2022-08-05T11:00:55.036Z,5.85
2022-08-05T11:03:24.924Z,6.37
2022-08-05T11:05:29.333Z,6.72
2022-08-05T11:08:02.787Z,4.85
2022-08-05T11:10:03.960Z,4.55
2022-08-05T11:12:37.436Z,4.05
2022-08-05T11:15:11.382Z,4.90
2022-08-05T11:17:59.100Z,4.63
2022-08-05T11:20:16.961Z,5.78
2022-08-05T11:22:43.593Z,4.28
2022-08-05T11:26:06.279Z,4.30
2022-08-05T11:28:00.726Z,4.53
2022-08-05T11:30:02.941Z,4.47
2022-08-05T11:32:30.810Z,4.80
2022-08-05T11:34:37.941Z,6.18
2022-08-05T11:36:42.947Z,3.97
2022-08-05T11:38:50.941Z,6.20
2022-08-05T11:41:35.309Z,3.17
2022-08-05T11:44:04.513Z,5.38
2022-08-05T11:46:27.144Z,10.65
2022-08-05T11:48:11.520Z,6.38
2022-08-05T11:50:14.354Z,6.40
2022-08-05T11:52:29.465Z,5.22
2022-08-05T11:54:34.484Z,4.43
2022-08-05T11:56:50.071Z,5.30
2022-08-05T11:58:52.874Z,6.85
2022-08-05T12:01:08.347Z,6.78
2022-08-05T12:03:29.374Z,12.60
2022-08-05T12:05:39.657Z,4.63
2022-08-05T12:08:10.444Z,6.07
2022-08-05T12:10:09.176Z,4.35
2022-08-05T12:12:13.568Z,6.90
2022-08-05T12:14:15.745Z,4.68
2022-08-05T12:16:20.001Z,6.82
2022-08-05T12:18:34.805Z,4.70
2022-08-05T12:20:41.449Z,8.90
2022-08-05T12:22:43.285Z,4.32
2022-08-05T12:24:50.449Z,5.53
2022-08-05T12:26:53.933Z,6.85
2022-08-05T12:28:55.709Z,4.10
2022-08-05T12:30:58.448Z,6.70
2022-08-05T12:33:06.890Z,14.05
2022-08-05T12:35:39.698Z,5.75
2022-08-05T12:37:46.921Z,6.60
2022-08-05T12:39:51.917Z,5.35
2022-08-05T12:41:59.682Z,6.93
2022-08-05T12:44:11.617Z,6.35
2022-08-05T12:46:29.764Z,7.18
2022-08-05T12:48:39.568Z,7.72
2022-08-05T12:50:41.836Z,5.60
2022-08-05T12:52:57.900Z,6.93
2022-08-05T12:57:09.247Z,4.93
2022-08-05T12:59:13.926Z,7.65
2022-08-05T13:02:01.886Z,6.65
2022-08-05T13:03:42.184Z,6.85
2022-08-05T13:05:47.465Z,4.60
2022-08-05T13:08:00.582Z,4.40
2022-08-05T13:10:03.139Z,6.82
2022-08-05T13:12:16.290Z,9.00
2022-08-05T13:14:20.204Z,4.25
2022-08-05T13:16:25.109Z,6.13
2022-08-05T13:18:37.763Z,7.70
2022-08-05T13:20:40.503Z,9.93
2022-08-05T13:22:47.032Z,8.63
2022-08-05T13:24:58.101Z,4.63
2022-08-05T13:27:02.789Z,4.40
2022-08-05T13:29:05.626Z,5.75
2022-08-05T13:31:10.950Z,6.38
2022-08-05T13:34:20.383Z,8.52
2022-08-05T13:35:47.611Z,7.60
2022-08-05T13:37:55.460Z,8.43
2022-08-05T13:40:16.297Z,5.30
2022-08-05T13:42:20.438Z,3.88
2022-08-05T13:44:22.171Z,6.55
2022-08-05T13:48:58.835Z,7.35
2022-08-05T13:51:07.788Z,10.70
2022-08-05T13:53:15.733Z,6.30
2022-08-05T13:55:41.139Z,5.22
2022-08-05T13:57:51.011Z,7.47
2022-08-05T13:59:57.082Z,5.82
2022-08-05T14:02:02.450Z,5.82
2022-08-05T14:06:25.852Z,6.13
2022-08-05T14:08:32.546Z,8.45
2022-08-05T14:10:38.716Z,9.70
2022-08-05T14:12:55.371Z,18.42
2022-08-05T14:14:57.246Z,10.35
2022-08-05T14:17:00.000Z,6.60
2022-08-05T14:19:04.366Z,8.05
2022-08-05T14:21:24.065Z,6.45
2022-08-05T14:23:33.658Z,6.43
2022-08-05T14:25:45.065Z,5.88
2022-08-05T14:27:47.627Z,5.97
2022-08-05T14:29:51.332Z,4.38
2022-08-05T14:32:12.416Z,7.93
2022-08-05T14:34:16.264Z,4.45
2022-08-05T14:36:21.292Z,4.68
2022-08-05T14:38:31.833Z,10.57
2022-08-05T14:40:34.932Z,5.18
2022-08-05T14:42:36.811Z,7.55
2022-08-05T14:44:39.894Z,4.80
2022-08-05T14:46:43.432Z,6.38
2022-08-05T14:48:49.326Z,5.07
2022-08-05T14:50:51.888Z,6.45
2022-08-05T14:52:57.851Z,7.63
2022-08-05T14:55:00.293Z,7.65
2022-08-05T14:57:05.324Z,16.13
2022-08-05T14:59:11.651Z,9.80
2022-08-05T15:01:16.088Z,5.32
2022-08-05T15:03:18.603Z,11.38
2022-08-05T15:05:30.176Z,6.35
2022-08-05T15:08:05.328Z,8.93
2022-08-05T15:10:09.645Z,10.90
2022-08-05T15:12:16.979Z,6.70
2022-08-05T15:14:33.964Z,3.88
2022-08-05T15:16:38.945Z,4.15
2022-08-05T15:18:42.123Z,11.43
2022-08-05T15:20:49.034Z,5.80
2022-08-05T15:22:54.330Z,10.35
2022-08-05T15:24:56.948Z,6.20
2022-08-05T15:26:58.697Z,5.50
2022-08-05T15:29:02.445Z,7.53
2022-08-05T15:31:05.636Z,5.60
2022-08-05T15:35:12.403Z,8.70
2022-08-05T15:37:17.206Z,6.40
2022-08-05T15:40:42.746Z,7.78
2022-08-05T15:41:57.836Z,7.60
2022-08-05T15:44:00.983Z,4.18
2022-08-05T15:46:06.173Z,5.93
2022-08-05T15:48:07.921Z,5.55
2022-08-05T15:50:15.431Z,4.68
2022-08-05T15:52:51.825Z,10.80
2022-08-05T15:54:41.333Z,5.70
2022-08-05T15:56:45.022Z,6.38
2022-08-05T15:58:47.627Z,5.47
2022-08-05T16:00:51.037Z,5.57
2022-08-05T16:03:06.268Z,6.90
2022-08-05T16:05:09.575Z,6.55
2022-08-05T16:07:13.227Z,5.22
2022-08-05T16:09:15.219Z,10.20
2022-08-05T16:11:17.364Z,10.05
2022-08-05T16:13:19.368Z,6.00
2022-08-05T16:15:32.754Z,4.63
2022-08-05T16:17:35.747Z,5.15
2022-08-05T16:20:04.584Z,6.57
2022-08-05T16:22:02.653Z,9.98
2022-08-05T16:24:05.726Z,6.10
2022-08-05T16:26:14.534Z,6.25
2022-08-05T16:28:16.595Z,5.70
2022-08-05T16:30:25.477Z,6.38
2022-08-05T16:32:29.650Z,5.35
2022-08-05T16:34:31.737Z,5.50
2022-08-05T16:36:33.742Z,5.82
2022-08-05T16:38:35.642Z,6.88
2022-08-05T16:40:37.727Z,4.57
2022-08-05T16:42:40.177Z,8.30
2022-08-05T16:44:41.943Z,5.38
2022-08-05T16:46:55.793Z,9.15
2022-08-05T16:48:58.277Z,4.95
2022-08-05T16:51:00.189Z,8.40
2022-08-05T16:53:12.442Z,7.07
2022-08-05T16:55:24.492Z,11.27
2022-08-05T16:57:30.143Z,7.85
2022-08-05T16:59:49.586Z,6.82
2022-08-05T17:02:04.848Z,15.80
2022-08-05T17:04:07.029Z,54.20
2022-08-05T17:06:09.013Z,14.52
2022-08-05T17:08:13.389Z,5.72
2022-08-05T17:10:15.691Z,7.53
2022-08-05T17:12:17.717Z,5.13
2022-08-05T17:14:36.862Z,7.82
2022-08-05T17:16:39.677Z,5.45
2022-08-05T17:18:41.651Z,12.20
2022-08-05T17:20:44.133Z,6.63
2022-08-05T17:22:45.987Z,13.55
2022-08-05T17:25:00.066Z,9.57
2022-08-05T17:27:02.247Z,13.48
2022-08-05T17:29:04.202Z,8.18
2022-08-05T17:31:24.206Z,10.57
2022-08-05T17:33:38.840Z,7.88
2022-08-05T17:36:09.153Z,7.65
2022-08-05T17:38:12.003Z,14.57
2022-08-05T17:40:22.232Z,9.82
2022-08-05T17:42:30.161Z,8.68
2022-08-05T17:44:34.353Z,10.43
2022-08-05T17:46:37.165Z,13.88
2022-08-05T17:48:38.944Z,7.30
2022-08-05T17:50:40.994Z,10.20
2022-08-05T17:52:52.718Z,10.63
2022-08-05T17:56:58.834Z,15.18
2022-08-05T17:59:00.869Z,17.58
2022-08-05T18:01:09.550Z,9.27
2022-08-05T18:03:12.339Z,8.30
2022-08-05T18:05:28.042Z,9.38
2022-08-05T18:07:40.874Z,13.82
2022-08-05T18:09:59.926Z,9.82
2022-08-05T18:12:02.980Z,15.27
2022-08-05T18:16:08.839Z,8.52
2022-08-05T18:18:15.622Z,10.38
2022-08-05T18:20:18.638Z,9.95
2022-08-05T18:22:21.891Z,10.40
2022-08-05T18:24:26.537Z,9.18
2022-08-05T18:26:32.067Z,13.13
2022-08-05T18:28:35.004Z,9.93
2022-08-05T18:30:39.049Z,13.82
2022-08-05T18:32:42.085Z,9.02
2022-08-05T18:34:55.720Z,14.82
2022-08-05T18:36:59.173Z,17.95
2022-08-05T18:39:01.903Z,13.27
2022-08-05T18:41:57.573Z,17.08
2022-08-05T18:43:27.435Z,9.38
2022-08-05T18:45:41.486Z,12.32
2022-08-05T18:47:44.446Z,11.55
2022-08-05T18:49:58.173Z,12.98
2022-08-05T18:52:05.456Z,10.88
2022-08-05T18:54:09.667Z,10.57
2022-08-05T18:56:12.563Z,10.93
2022-08-05T18:58:16.262Z,7.72
2022-08-05T19:00:19.933Z,12.73
2022-08-05T19:02:28.183Z,13.18
2022-08-05T19:05:01.612Z,13.85
2022-08-05T19:07:02.195Z,17.25
2022-08-05T19:09:04.602Z,22.92
2022-08-05T19:11:09.224Z,11.38
2022-08-05T19:13:15.918Z,14.45
2022-08-05T19:15:57.909Z,17.70
2022-08-05T19:18:08.306Z,25.17
2022-08-05T19:20:01.913Z,12.88
2022-08-05T19:22:05.079Z,17.42
2022-08-05T19:24:12.599Z,19.30
2022-08-05T19:26:15.056Z,12.05
2022-08-05T19:28:18.215Z,13.85
2022-08-05T19:30:20.584Z,10.68
2022-08-05T19:32:23.078Z,12.10
2022-08-05T19:34:28.290Z,18.52
2022-08-05T19:36:32.200Z,17.83
2022-08-05T19:38:36.004Z,14.15
2022-08-05T19:40:38.544Z,18.52
2022-08-05T19:42:41.189Z,20.85
2022-08-05T19:44:46.617Z,13.65
2022-08-05T19:46:50.243Z,12.73
2022-08-05T19:50:54.045Z,13.25
2022-08-05T19:52:55.876Z,15.90
2022-08-05T19:54:57.585Z,10.98
2022-08-05T19:57:09.491Z,19.25
2022-08-05T19:59:51.073Z,16.27
2022-08-05T20:01:34.621Z,15.93
2022-08-05T20:03:40.990Z,11.52
2022-08-05T20:05:51.213Z,11.82
2022-08-05T20:07:57.972Z,16.08
2022-08-05T20:10:01.079Z,16.38
2022-08-05T20:12:03.189Z,15.80
2022-08-05T20:14:12.864Z,13.43
2022-08-05T20:16:19.516Z,13.18
2022-08-05T20:18:33.902Z,15.30
2022-08-05T20:20:38.727Z,15.02
2022-08-05T20:22:41.474Z,13.63
2022-08-05T20:24:46.033Z,11.68
2022-08-05T20:26:48.258Z,15.75
2022-08-05T20:30:54.826Z,14.50
2022-08-05T20:32:56.570Z,15.85
2022-08-05T20:34:58.477Z,29.48
2022-08-05T20:37:00.330Z,20.90
2022-08-05T20:39:03.792Z,18.92
2022-08-05T20:41:08.177Z,22.92
2022-08-05T20:43:10.140Z,18.92
2022-08-05T20:45:12.495Z,22.10
2022-08-05T20:47:14.509Z,21.52
2022-08-05T20:49:24.152Z,24.13
2022-08-05T20:51:27.570Z,24.52
2022-08-05T20:53:36.530Z,24.02
2022-08-05T20:55:56.640Z,27.10
2022-08-05T20:58:04.551Z,19.92
2022-08-05T21:00:21.009Z,19.15
2022-08-05T21:02:29.726Z,24.00
2022-08-05T21:04:31.457Z,37.38
2022-08-05T21:06:33.391Z,25.00
2022-08-05T21:08:41.665Z,39.25
2022-08-05T21:10:48.970Z,24.67
2022-08-05T21:13:08.186Z,24.10
2022-08-05T21:15:13.127Z,28.83
2022-08-05T21:17:14.977Z,18.10
2022-08-05T21:19:17.350Z,16.98
2022-08-05T21:21:24.541Z,14.77
2022-08-05T21:23:26.360Z,16.80
2022-08-05T21:25:34.006Z,14.00
2022-08-05T21:27:38.877Z,15.35
2022-08-05T21:29:40.992Z,16.98
2022-08-05T21:31:42.716Z,11.38
2022-08-05T21:33:47.470Z,15.60
2022-08-05T21:35:58.550Z,14.57
2022-08-05T21:38:00.832Z,18.55
2022-08-05T21:40:06.345Z,15.10
2022-08-05T21:42:19.778Z,17.27
2022-08-05T21:44:36.797Z,20.52
2022-08-05T21:46:39.043Z,18.95
2022-08-05T21:48:41.382Z,14.65
2022-08-05T21:50:53.224Z,22.52
2022-08-05T21:52:58.943Z,15.33
2022-08-05T21:55:07.296Z,15.85
2022-08-05T21:59:48.158Z,17.10
2022-08-05T22:01:54.584Z,16.33
2022-08-05T22:03:56.556Z,16.65
2022-08-05T22:05:58.625Z,14.57
2022-08-05T22:08:02.532Z,16.48
2022-08-05T22:10:06.185Z,14.27
2022-08-05T22:12:10.840Z,13.60
2022-08-05T22:14:33.461Z,16.83
2022-08-05T22:16:51.824Z,28.65
2022-08-05T22:18:58.457Z,18.13
2022-08-05T22:21:00.741Z,16.40
2022-08-05T22:23:16.749Z,15.77
2022-08-05T22:25:27.305Z,16.33
2022-08-05T22:28:10.258Z,13.75
2022-08-05T22:29:54.293Z,20.20
2022-08-05T22:32:02.630Z,13.10
2022-08-05T22:34:04.731Z,16.50
2022-08-05T22:36:07.834Z,13.80
2022-08-05T22:38:12.083Z,14.35
2022-08-05T22:40:16.578Z,13.95
2022-08-05T22:42:26.276Z,16.80
2022-08-05T22:44:29.439Z,16.15
2022-08-05T22:46:31.265Z,13.30
2022-08-05T22:48:34.567Z,16.65
2022-08-05T22:50:37.352Z,17.10
2022-08-05T22:52:52.525Z,22.23
2022-08-05T22:54:54.607Z,16.98
2022-08-05T22:56:57.058Z,11.65
2022-08-05T22:59:03.149Z,12.73
2022-08-05T23:01:21.721Z,16.73
2022-08-05T23:03:57.737Z,10.65
2022-08-05T23:06:01.335Z,17.38
2022-08-05T23:08:04.144Z,17.60
2022-08-05T23:10:06.757Z,12.27
2022-08-05T23:12:09.625Z,11.02
2022-08-05T23:14:12.699Z,15.52
2022-08-05T23:16:14.551Z,12.80
2022-08-05T23:18:35.003Z,17.67
2022-08-05T23:20:43.078Z,12.20
2022-08-05T23:22:47.570Z,11.02
2022-08-05T23:24:51.404Z,18.70
2022-08-05T23:26:53.502Z,16.45
2022-08-05T23:28:55.296Z,11.93
2022-08-05T23:31:16.298Z,9.98
2022-08-05T23:33:26.141Z,13.15
2022-08-05T23:35:41.148Z,16.45
2022-08-05T23:37:43.680Z,14.10
2022-08-05T23:39:54.354Z,11.85
2022-08-05T23:41:56.836Z,10.35
2022-08-05T23:44:08.674Z,13.20
2022-08-05T23:46:19.994Z,13.85
2022-08-05T23:48:23.696Z,16.15
2022-08-05T23:50:28.114Z,20.08
2022-08-05T23:52:36.160Z,11.77
2022-08-05T23:54:51.470Z,10.10
2022-08-05T23:56:54.796Z,17.50
